Time;durP1;ratioP1;P1;durP2;ratioP2;P2;SDS_P1;SDS_P2;PMS_P1;PMS_P2;Temp;Humidity;BMP_temperature;BMP_pressure;BME280_temperature;BME280_humidity;BME280_pressure;Samples;Min_cycle;Max_cycle;Signal;HPM_P1;HPM_P2
2022/05/31 00:01:24;;;;;;;7.80;4.68;;;;;;;15.33;57.15;100325.16;6219203;23;20075;-77
2022/05/31 00:03:50;;;;;;;9.63;4.72;;;;;;;15.33;56.90;100328.66;6215902;23;20359;-80
2022/05/31 00:06:16;;;;;;;7.10;4.70;;;;;;;15.09;57.34;100305.56;6165149;23;20397;-79
2022/05/31 00:08:42;;;;;;;6.95;4.20;;;;;;;15.13;57.34;100329.06;6187193;23;20366;-79
2022/05/31 00:11:08;;;;;;;8.73;4.93;;;;;;;15.08;57.52;100327.41;6162567;23;20027;-78
2022/05/31 00:13:35;;;;;;;7.50;4.50;;;;;;;15.12;58.15;100331.69;6212955;23;20020;-80
2022/05/31 00:16:01;;;;;;;9.10;4.75;;;;;;;14.98;58.05;100311.00;6186699;23;20100;-80
2022/05/31 00:18:27;;;;;;;6.45;4.93;;;;;;;15.00;58.28;100330.19;6188408;23;20026;-80
2022/05/31 00:20:55;;;;;;;8.27;4.93;;;;;;;15.12;58.47;100344.78;6187548;23;20029;-79
2022/05/31 00:23:21;;;;;;;5.90;4.45;;;;;;;15.11;58.58;100333.47;6187771;23;20068;-79
2022/05/31 00:25:47;;;;;;;6.97;3.42;;;;;;;15.17;58.54;100332.47;6162276;23;20024;-78
2022/05/31 00:28:13;;;;;;;5.40;2.85;;;;;;;15.13;58.97;100329.06;6215104;23;20016;-78
2022/05/31 00:30:40;;;;;;;4.78;3.03;;;;;;;15.12;58.77;100345.66;6194283;23;20154;-78
2022/05/31 00:33:07;;;;;;;4.40;3.28;;;;;;;14.98;59.41;100331.97;6194638;23;20031;-78
2022/05/31 00:35:38;;;;;;;4.78;3.40;;;;;;;14.99;59.70;100336.31;6190008;23;20020;-80
2022/05/31 00:38:05;;;;;;;6.20;3.10;;;;;;;14.96;59.62;100352.94;6219471;23;20017;-78
2022/05/31 00:40:32;;;;;;;4.15;3.10;;;;;;;14.76;59.96;100333.22;6229215;23;20402;-78
2022/05/31 00:43:01;;;;;;;7.00;3.65;;;;;;;14.85;60.12;100357.53;6185765;23;20024;-78
2022/05/31 00:45:55;;;;;;;8.25;3.22;;;;;;;14.80;60.70;100356.75;6213900;23;20030;-79
2022/05/31 00:48:24;;;;;;;8.02;3.10;;;;;;;14.79;60.92;100352.38;6240675;23;20007;-80
2022/05/31 00:50:57;;;;;;;7.10;3.00;;;;;;;14.61;60.59;100328.22;6196724;23;20067;-80
2022/05/31 00:53:29;;;;;;;5.47;3.17;;;;;;;14.74;60.94;100353.31;6222266;23;20020;-77
2022/05/31 00:56:00;;;;;;;6.38;3.30;;;;;;;14.65;60.70;100347.34;6214291;23;20020;-78
2022/05/31 00:58:40;;;;;;;5.55;3.70;;;;;;;14.42;60.94;100328.53;6186788;23;20188;-78
2022/05/31 01:01:10;;;;;;;4.00;3.13;;;;;;;14.56;61.62;100351.00;6213124;23;20050;-81
2022/05/31 01:03:39;;;;;;;5.50;3.42;;;;;;;14.46;61.46;100348.50;6186344;23;20018;-77
2022/05/31 01:06:06;;;;;;;5.05;3.47;;;;;;;14.36;61.66;100338.22;6161373;23;20013;-80
2022/05/31 01:08:34;;;;;;;4.53;3.38;;;;;;;14.45;61.97;100354.63;6213410;23;20017;-80
2022/05/31 01:11:21;;;;;;;5.18;3.22;;;;;;;14.43;62.38;100343.34;6165975;23;20020;-78
2022/05/31 01:14:10;;;;;;;4.80;2.90;;;;;;;14.39;62.18;100322.47;6212104;23;20012;-80
2022/05/31 01:17:08;;;;;;;6.93;3.35;;;;;;;14.51;62.22;100355.44;6186577;23;20019;-80
2022/05/31 01:19:57;;;;;;;6.50;3.22;;;;;;;14.49;62.32;100354.59;6186719;23;20020;-77
2022/05/31 01:22:36;;;;;;;5.45;3.65;;;;;;;14.58;62.49;100354.44;6161793;23;20016;-80
2022/05/31 01:25:31;;;;;;;5.13;3.15;;;;;;;14.57;62.25;100358.81;6188087;23;20025;-77
2022/05/31 01:28:35;;;;;;;3.80;3.20;;;;;;;14.63;62.70;100362.22;6186996;23;20017;-78
2022/05/31 01:31:28;;;;;;;6.13;2.75;;;;;;;14.61;62.38;100359.66;6188288;23;20071;-79
2022/05/31 01:34:21;;;;;;;5.82;3.17;;;;;;;14.64;62.41;100359.59;6214308;23;20021;-79
2022/05/31 01:36:49;;;;;;;6.88;3.30;;;;;;;14.45;62.70;100333.69;6170338;23;20016;-78
2022/05/31 01:39:41;;;;;;;6.75;3.08;;;;;;;14.67;62.76;100361.28;6222187;23;20155;-77
2022/05/31 01:42:10;;;;;;;4.95;3.10;;;;;;;14.68;62.48;100358.66;6173425;23;20027;-77
2022/05/31 01:47:40;;;;;;;4.68;3.08;;;;;;;14.04;62.70;100256.72;6212127;23;20004;-78
2022/05/31 01:50:11;;;;;;;5.45;3.00;;;;;;;14.39;62.43;100318.09;6214793;23;20024;-79
2022/05/31 01:52:40;;;;;;;5.93;3.22;;;;;;;14.16;62.51;100301.00;6214165;23;20005;-79
2022/05/31 01:55:09;;;;;;;5.43;3.17;;;;;;;14.30;62.67;100324.34;6214435;23;20024;-79
2022/05/31 01:57:47;;;;;;;6.68;3.17;;;;;;;14.40;62.60;100371.31;6144642;23;20107;-81
2022/05/31 02:00:16;;;;;;;5.90;3.03;;;;;;;14.38;63.19;100373.09;6213807;23;20121;-77
2022/05/31 02:02:47;;;;;;;4.78;3.10;;;;;;;14.42;63.75;100372.16;6188376;23;20025;-77
2022/05/31 02:05:15;;;;;;;4.13;2.92;;;;;;;14.36;63.95;100360.03;6187066;23;20021;-79
2022/05/31 02:07:42;;;;;;;6.50;3.10;;;;;;;14.31;63.86;100354.88;6186448;23;20024;-79
2022/05/31 02:10:09;;;;;;;4.97;3.03;;;;;;;14.22;63.97;100362.88;6211085;23;20020;-79
2022/05/31 02:12:41;;;;;;;;;;;;;;;14.24;64.66;100366.31;6185452;23;20021;-80
2022/05/31 02:15:23;;;;;;;4.80;2.88;;;;;;;14.26;64.82;100375.03;6224056;23;19915;-78
2022/05/31 02:18:09;;;;;;;5.55;2.80;;;;;;;13.78;64.71;100297.22;6213490;23;20020;-79
2022/05/31 02:20:54;;;;;;;4.35;2.83;;;;;;;14.10;65.08;100340.34;6186125;23;20462;-81
2022/05/31 02:23:21;;;;;;;3.78;2.80;;;;;;;13.73;64.64;100277.25;6191382;23;20017;-80
2022/05/31 02:25:48;;;;;;;3.33;2.95;;;;;;;13.64;65.04;100254.69;6187482;23;20017;-80
2022/05/31 02:28:14;;;;;;;4.60;2.90;;;;;;;14.08;64.93;100328.19;6162045;23;20016;-79
2022/05/31 02:30:41;;;;;;;6.10;2.95;;;;;;;13.82;64.91;100284.97;6162422;23;20046;-80
2022/05/31 02:33:12;;;;;;;7.20;2.70;;;;;;;13.78;65.02;100270.19;6162985;23;20537;-79
2022/05/31 02:35:38;;;;;;;4.63;2.83;;;;;;;14.22;64.76;100302.66;6211988;23;20021;-78
2022/05/31 02:38:05;;;;;;;3.25;2.72;;;;;;;14.71;64.55;100392.66;6190780;23;20020;-80
2022/05/31 02:40:31;;;;;;;3.80;2.67;;;;;;;14.48;64.20;100334.53;6188856;23;20083;-78
2022/05/31 02:42:59;;;;;;;3.58;2.55;;;;;;;14.49;64.42;100334.53;6162849;23;20039;-78
2022/05/31 02:45:25;;;;;;;3.65;2.30;;;;;;;14.70;64.06;100369.97;6136947;23;20016;-80
2022/05/31 02:47:55;;;;;;;3.83;2.40;;;;;;;14.83;63.97;100385.50;6186272;23;20028;-80
2022/05/31 02:50:21;;;;;;;2.35;2.10;;;;;;;14.74;63.97;100366.44;6211895;23;20149;-79
2022/05/31 02:52:50;;;;;;;3.25;2.13;;;;;;;14.96;64.05;100399.25;6216716;23;20023;-81
2022/05/31 02:55:17;;;;;;;5.05;2.30;;;;;;;14.94;63.69;100374.84;6163298;23;20067;-80
2022/05/31 02:58:01;;;;;;;4.25;2.20;;;;;;;14.84;63.06;100371.53;6189316;23;20070;-81
2022/05/31 03:01:23;;;;;;;2.75;2.28;;;;;;;14.94;63.38;100398.41;6165933;23;20019;-81
2022/05/31 03:04:09;;;;;;;4.15;2.67;;;;;;;14.86;63.33;100388.94;6212397;23;20017;-78
2022/05/31 03:07:10;;;;;;;8.65;6.72;;;;;;;14.77;63.28;100376.00;6136539;23;20080;-78
2022/05/31 03:09:58;;;;;;;12.70;10.85;;;;;;;14.87;63.41;100381.94;6191575;23;20024;-79
2022/05/31 03:12:33;;;;;;;8.68;6.95;;;;;;;14.71;63.11;100355.16;6137023;23;20078;-83
2022/05/31 03:15:13;;;;;;;6.00;3.50;;;;;;;14.80;63.06;100365.44;6212894;23;20016;-78
2022/05/31 03:17:53;;;;;;;2.72;2.45;;;;;;;15.09;63.17;100411.25;6161925;23;20020;-79
2022/05/31 03:20:35;;;;;;;5.32;3.22;;;;;;;14.68;63.05;100327.22;6181577;23;20048;-80
2022/05/31 03:23:11;;;;;;;3.08;1.98;;;;;;;14.54;62.86;100305.63;6133263;23;20017;-79
2022/05/31 03:25:42;;;;;;;3.92;2.35;;;;;;;14.52;63.15;100313.53;6186403;23;20020;-78
2022/05/31 03:28:16;;;;;;;4.03;2.10;;;;;;;14.85;62.99;100381.09;6163850;23;20017;-78
2022/05/31 03:30:42;;;;;;;5.85;2.55;;;;;;;15.06;63.48;100430.53;6188202;23;20027;-78
2022/05/31 03:33:12;;;;;;;4.13;2.28;;;;;;;14.99;63.58;100402.69;6163545;23;20095;-79
2022/05/31 03:35:39;;;;;;;3.90;2.20;;;;;;;15.06;63.97;100412.19;6210510;23;20071;-79
2022/05/31 03:38:13;;;;;;;3.78;2.30;;;;;;;15.21;64.17;100418.03;6213224;23;20059;-78
2022/05/31 03:40:58;;;;;;;4.75;2.40;;;;;;;15.21;64.27;100424.16;6141019;23;20036;-80
2022/05/31 03:43:39;;;;;;;15.45;2.95;;;;;;;14.88;64.42;100355.72;6143136;23;20013;-80
2022/05/31 03:46:25;;;;;;;3.05;1.80;;;;;;;14.91;64.09;100353.03;6190780;23;20044;-79
2022/05/31 03:48:59;;;;;;;3.20;2.00;;;;;;;14.94;63.86;100398.41;6193367;23;20040;-79
2022/05/31 03:51:29;;;;;;;7.43;2.20;;;;;;;14.58;63.72;100373.63;6166136;23;20056;-77
2022/05/31 03:54:01;;;;;;;12.25;2.42;;;;;;;14.49;64.20;100434.03;6142381;23;20024;-79
2022/05/31 03:56:57;;;;;;;3.45;2.53;;;;;;;14.02;65.30;100423.31;6193343;23;20021;-79
2022/05/31 03:59:23;;;;;;;2.30;2.10;;;;;;;13.86;66.19;100438.38;6191386;23;20013;-80
2022/05/31 04:01:49;;;;;;;4.45;2.65;;;;;;;13.69;67.43;100435.94;6190849;23;20024;-79
2022/05/31 04:04:15;;;;;;;3.95;2.05;;;;;;;13.60;67.33;100429.06;6192291;23;20013;-79
2022/05/31 04:06:42;;;;;;;6.07;2.63;;;;;;;13.67;67.71;100443.81;6170858;23;20394;-79
2022/05/31 04:09:08;;;;;;;2.63;2.42;;;;;;;13.65;68.49;100418.56;6189801;23;20017;-78
2022/05/31 04:11:34;;;;;;;3.75;2.40;;;;;;;13.80;68.49;100422.75;6191444;23;20021;-78
2022/05/31 04:14:08;;;;;;;2.40;1.90;;;;;;;13.72;68.27;100433.31;6192456;23;20024;-81
2022/05/31 04:16:46;;;;;;;2.92;2.17;;;;;;;13.69;69.05;100428.94;6211630;23;20028;-78
2022/05/31 04:19:13;;;;;;;2.83;2.00;;;;;;;13.45;68.98;100380.44;6217453;23;20024;-79
2022/05/31 04:21:40;;;;;;;3.95;1.85;;;;;;;13.84;69.65;100430.53;6224498;23;20016;-80
2022/05/31 04:24:11;;;;;;;5.07;2.80;;;;;;;13.75;69.77;100380.97;6231714;23;20060;-79
2022/05/31 04:26:46;;;;;;;4.05;2.67;;;;;;;14.16;69.51;100410.94;6227929;23;20067;-79
2022/05/31 04:29:51;;;;;;;2.60;2.40;;;;;;;14.28;69.54;100411.63;6179296;23;20012;-80
2022/05/31 04:32:35;;;;;;;4.70;3.55;;;;;;;14.39;69.53;100401.88;6180545;23;20049;-79
2022/05/31 04:35:07;;;;;;;4.32;3.15;;;;;;;14.46;69.14;100413.13;6202159;23;20024;-78
2022/05/31 04:37:33;;;;;;;5.22;3.90;;;;;;;14.37;68.98;100387.94;6221673;23;20016;-78
2022/05/31 04:40:02;;;;;;;6.43;4.97;;;;;;;14.51;68.58;100407.81;6221217;23;20016;-81
2022/05/31 04:42:50;;;;;;;6.30;5.70;;;;;;;14.63;68.86;100412.88;6218277;23;20021;-80
2022/05/31 04:45:42;;;;;;;7.07;5.35;;;;;;;14.58;68.34;100398.97;6208436;23;20112;-80
2022/05/31 04:48:33;;;;;;;5.00;4.32;;;;;;;14.69;68.37;100410.16;6170651;23;20028;-79
2022/05/31 04:51:00;;;;;;;7.13;4.13;;;;;;;14.67;68.29;100398.84;6214034;23;20052;-81
2022/05/31 04:53:33;;;;;;;5.38;4.05;;;;;;;14.72;67.68;100404.88;6187939;23;20016;-79
2022/05/31 04:56:32;;;;;;;4.53;4.00;;;;;;;14.72;67.93;100391.78;6180884;23;20448;-78
2022/05/31 04:59:05;;;;;;;6.10;3.50;;;;;;;14.95;67.60;100405.38;6191993;23;20020;-82
2022/05/31 05:01:34;;;;;;;3.80;3.40;;;;;;;14.95;67.35;100408.88;6216890;23;20024;-81
2022/05/31 05:04:06;;;;;;;4.22;3.70;;;;;;;14.80;67.24;100368.06;6217994;23;20051;-78
2022/05/31 05:06:42;;;;;;;4.30;3.67;;;;;;;14.60;66.83;100327.34;6219527;23;20008;-77
2022/05/31 05:09:13;;;;;;;5.68;4.60;;;;;;;15.07;66.59;100376.34;6217162;23;20024;-77
2022/05/31 05:12:13;;;;;;;4.80;3.97;;;;;;;14.76;66.31;100322.72;6218801;22;20059;-78
2022/05/31 05:14:45;;;;;;;4.68;3.75;;;;;;;15.17;66.31;100356.06;6155053;23;20001;-77
2022/05/31 05:17:15;;;;;;;4.47;2.92;;;;;;;15.27;66.30;100331.41;6160036;23;20108;-76
2022/05/31 05:22:50;;;;;;;4.18;2.35;;;;;;;15.81;64.88;100379.25;6196502;22;20008;-78
2022/05/31 05:26:03;;;;;;;5.25;2.95;;;;;;;15.96;64.58;100397.34;6164119;23;21466;31
2022/05/31 05:36:08;;;;;;;3.97;3.17;;;;;;;15.27;63.40;100265.00;6153403;22;20070;-77
2022/05/31 05:38:44;;;;;;;4.80;2.70;;;;;;;15.77;63.36;100348.75;6064822;23;20033;-79
2022/05/31 05:41:39;;;;;;;3.58;2.30;;;;;;;15.21;63.80;100263.38;6124851;22;20162;-81
2022/05/31 05:44:50;;;;;;;2.78;2.10;;;;;;;16.05;63.52;100379.66;6217854;22;20027;-78
2022/05/31 05:47:19;;;;;;;3.00;2.00;;;;;;;15.77;62.83;100346.13;6148775;23;20025;-79
2022/05/31 05:49:46;;;;;;;3.85;2.30;;;;;;;15.37;62.74;100277.03;6142628;23;20100;-77
2022/05/31 05:52:35;;;;;;;4.90;2.45;;;;;;;15.62;62.88;100321.94;6239416;23;20048;-75
2022/05/31 05:58:14;;;;;;;4.57;3.10;;;;;;;15.78;63.43;100382.81;6211059;23;20005;-78
2022/05/31 06:01:07;;;;;;;6.13;3.80;;;;;;;15.24;63.17;100288.63;6164394;23;20025;-77
2022/05/31 06:07:15;;;;;;;7.57;3.83;;;;;;;15.53;63.89;100330.03;6200682;22;20056;-79
2022/05/31 06:10:18;;;;;;;6.68;3.78;;;;;;;16.01;63.86;100380.59;6167661;23;20008;-78
2022/05/31 06:13:08;;;;;;;10.57;4.90;;;;;;;15.33;63.55;100268.38;6247505;22;20068;-79
2022/05/31 06:19:54;;;;;;;9.15;6.07;;;;;;;15.44;63.71;100276.00;6231625;23;20480;-77
2022/05/31 06:22:27;;;;;;;7.30;3.88;;;;;;;15.61;63.47;100304.47;6188398;22;20023;-79
2022/05/31 06:25:15;;;;;;;3.07;2.60;;;;;;;15.96;63.14;100381.59;6193368;23;20110;-78
2022/05/31 06:27:56;;;;;;;3.35;2.47;;;;;;;15.44;64.21;100309.22;6212926;23;20020;-78
2022/05/31 06:30:27;;;;;;;3.72;2.25;;;;;;;15.26;64.53;100290.34;6188749;23;20020;-77
2022/05/31 06:32:55;;;;;;;3.45;2.50;;;;;;;15.45;65.02;100317.03;6162005;23;20119;-79
2022/05/31 06:35:27;;;;;;;13.60;3.00;;;;;;;15.32;64.70;100299.84;6137100;23;20016;-80
2022/05/31 06:38:05;;;;;;;4.55;3.67;;;;;;;15.33;65.25;100339.16;6161041;23;20023;-78
2022/05/31 06:40:32;;;;;;;8.32;6.40;;;;;;;14.96;65.64;100321.50;6185904;23;20016;-79
2022/05/31 06:43:01;;;;;;;14.77;11.27;;;;;;;15.16;66.69;100363.06;6187721;23;20020;-81
2022/05/31 06:45:50;;;;;;;10.48;7.43;;;;;;;14.67;67.18;100273.13;6186301;23;20489;-80
2022/05/31 06:49:01;;;;;;;5.40;4.70;;;;;;;14.69;68.01;100279.19;6186034;23;20111;-78
2022/05/31 06:58:15;;;;;;;4.47;3.45;;;;;;;15.35;68.30;100329.47;6192949;23;20016;-82
2022/05/31 07:00:57;;;;;;;5.93;4.05;;;;;;;15.60;68.84;100347.31;6189114;23;20090;-83
2022/05/31 07:03:33;;;;;;;4.95;4.35;;;;;;;15.44;68.39;100288.25;6142915;23;20017;-81
2022/05/31 07:06:05;;;;;;;8.45;4.43;;;;;;;15.58;67.79;100296.66;6189988;23;20100;-80
2022/05/31 07:08:35;;;;;;;6.18;4.93;;;;;;;15.80;68.16;100314.56;6188217;23;20020;-80
2022/05/31 07:12:12;;;;;;;8.52;6.57;;;;;;;15.60;67.90;100276.50;6188288;23;20016;-80
2022/05/31 07:15:15;;;;;;;9.68;7.10;;;;;;;16.22;67.62;100346.00;6168851;23;20036;-79
2022/05/31 07:18:12;;;;;;;9.95;7.07;;;;;;;16.29;67.15;100348.47;6188135;23;20342;-81
2022/05/31 07:21:50;;;;;;;12.60;7.65;;;;;;;15.92;66.73;100274.09;6214327;23;20135;-80
2022/05/31 07:25:15;;;;;;;;;;;;;;;;;;;;;
2022/05/31 07:28:40;;;;;;;10.43;7.22;;;;;;;16.75;66.52;100360.47;6194188;23;20070;-79
2022/05/31 07:35:11;;;;;;;10.43;7.80;;;;;;;16.97;66.45;100357.31;6188953;23;20012;-79
2022/05/31 07:37:42;;;;;;;14.40;8.18;;;;;;;16.57;65.83;100275.09;6110821;23;20043;-82
2022/05/31 07:40:28;;;;;;;13.20;9.30;;;;;;;16.90;65.15;100319.78;6165552;23;20107;-82
2022/05/31 07:43:10;;;;;;;12.50;9.15;;;;;;;17.22;65.37;100325.94;6200304;23;20095;-84
2022/05/31 07:45:43;;;;;;;11.85;7.30;;;;;;;17.16;64.94;100284.94;6193321;23;20078;-81
2022/05/31 07:48:46;;;;;;;8.45;6.35;;;;;;;17.10;64.20;100256.16;6190289;23;20016;-82
2022/05/31 07:52:03;;;;;;;6.53;5.18;;;;;;;17.25;64.06;100248.75;6218645;23;20124;-79
2022/05/31 07:55:07;;;;;;;7.03;4.78;;;;;;;17.99;64.47;100312.31;6192880;23;20024;-83
2022/05/31 08:01:10;;;;;;;5.95;4.60;;;;;;;18.34;62.51;100276.06;6220020;23;20012;-81
2022/05/31 08:03:38;;;;;;;5.78;3.88;;;;;;;18.90;62.12;100347.97;6205488;23;20035;-81
2022/05/31 08:06:14;;;;;;;8.00;4.00;;;;;;;18.71;61.72;100296.81;6210491;23;20016;-83
2022/05/31 08:11:39;;;;;;;7.93;4.25;;;;;;;18.58;60.93;100260.34;6155479;23;20747;-84
2022/05/31 08:14:20;;;;;;;;;;;;;;;19.20;60.42;100326.72;6217317;23;20047;-83
2022/05/31 08:17:32;;;;;;;5.43;3.72;;;;;;;18.85;58.97;100280.50;6185382;23;19943;-81
2022/05/31 08:20:20;;;;;;;6.28;3.67;;;;;;;18.55;59.49;100291.19;6217302;23;20091;-81
2022/05/31 08:22:48;;;;;;;10.73;5.30;;;;;;;18.42;60.03;100301.31;6164844;23;20036;-84
2022/05/31 08:25:14;;;;;;;5.30;3.95;;;;;;;18.42;59.63;100317.97;6195766;23;20008;-80
2022/05/31 08:27:51;;;;;;;;;;;;;;;;;;;;;
2022/05/31 08:33:10;;;;;;;6.05;3.30;;;;;;;17.87;59.52;100295.13;6186657;23;20017;-81
2022/05/31 08:35:36;;;;;;;4.50;4.10;;;;;;;17.78;59.72;100292.75;6227309;23;20450;-81
2022/05/31 08:38:02;;;;;;;8.00;4.45;;;;;;;17.89;60.41;100345.06;6165343;23;20028;-83
2022/05/31 08:40:51;;;;;;;7.78;4.53;;;;;;;17.73;61.16;100313.09;6203943;23;20044;-84
2022/05/31 08:43:36;;;;;;;5.70;4.38;;;;;;;17.35;61.72;100275.66;6234591;23;20429;-84
2022/05/31 08:46:10;;;;;;;6.47;3.55;;;;;;;16.93;61.10;100232.97;6209819;23;20021;-82
2022/05/31 08:49:02;;;;;;;4.97;3.70;;;;;;;16.99;62.02;100285.38;6211783;23;20007;-86
2022/05/31 08:51:54;;;;;;;6.18;4.60;;;;;;;17.01;63.17;100283.59;6183642;23;20083;-81
2022/05/31 08:57:48;;;;;;;5.97;3.95;;;;;;;16.96;62.68;100243.44;6186317;23;20035;-81
2022/05/31 09:00:25;;;;;;;6.50;4.22;;;;;;;17.16;63.05;100299.84;6205680;23;20401;-83
2022/05/31 09:03:09;;;;;;;7.50;4.50;;;;;;;17.07;64.24;100294.84;6180574;23;20032;-84
2022/05/31 09:05:56;;;;;;;8.82;5.32;;;;;;;17.28;63.84;100302.13;6205728;23;20020;-82
2022/05/31 09:08:46;;;;;;;15.35;8.43;;;;;;;17.58;64.57;100336.34;6223475;23;20012;-81
2022/05/31 09:11:32;;;;;;;17.80;10.38;;;;;;;17.89;64.22;100335.41;6193198;23;20116;-82
2022/05/31 09:14:41;;;;;;;19.20;11.13;;;;;;;18.11;63.91;100331.28;6215751;23;20453;-79
2022/05/31 09:17:38;;;;;;;9.27;5.13;;;;;;;18.13;63.01;100330.31;6179323;23;20466;-80
2022/05/31 09:20:46;;;;;;;5.68;3.97;;;;;;;18.09;61.67;100339.25;6163377;23;20149;-82
2022/05/31 09:23:22;;;;;;;7.30;4.60;;;;;;;17.89;61.73;100314.34;6159231;23;20090;-80
2022/05/31 09:26:08;;;;;;;12.70;4.95;;;;;;;17.78;61.74;100298.03;6215513;23;20020;-78
2022/05/31 09:28:45;;;;;;;4.32;3.92;;;;;;;17.82;60.95;100296.16;6189914;23;20016;-79
2022/05/31 09:31:55;;;;;;;4.55;3.78;;;;;;;18.17;61.34;100331.94;6167684;23;20027;-80
2022/05/31 09:34:42;;;;;;;7.25;4.50;;;;;;;18.26;60.83;100322.88;6177624;23;20013;-80
2022/05/31 09:37:27;;;;;;;4.57;3.88;;;;;;;18.47;60.31;100329.22;6189835;23;20127;-79
2022/05/31 09:40:08;;;;;;;5.00;4.07;;;;;;;18.50;59.99;100325.63;6168894;23;20488;-80
2022/05/31 09:43:12;;;;;;;7.22;4.45;;;;;;;18.62;60.31;100324.34;6186009;23;20024;-79
2022/05/31 09:45:58;;;;;;;5.53;3.70;;;;;;;18.40;59.33;100309.25;6162132;23;20016;-80
2022/05/31 09:48:27;;;;;;;4.57;3.42;;;;;;;18.46;59.78;100337.16;6212295;23;20091;-79
2022/05/31 09:51:23;;;;;;;4.93;3.60;;;;;;;18.48;58.66;100330.06;6187622;23;20016;-80
2022/05/31 09:57:34;;;;;;;8.88;4.80;;;;;;;18.27;58.75;100300.91;6188757;23;20099;-78
2022/05/31 10:00:19;;;;;;;5.80;5.15;;;;;;;18.31;58.37;100307.78;6163869;23;20088;-81
2022/05/31 10:03:14;;;;;;;5.25;4.68;;;;;;;18.70;58.12;100332.84;6188270;23;20038;-78
2022/05/31 10:06:02;;;;;;;6.22;5.07;;;;;;;18.64;57.69;100333.06;6186312;23;20076;-79
2022/05/31 10:08:55;;;;;;;6.55;5.13;;;;;;;18.34;58.32;100273.44;6185536;23;20590;-80
2022/05/31 10:12:11;;;;;;;7.97;4.63;;;;;;;18.93;58.59;100342.59;6188045;23;20036;-81
2022/05/31 10:15:52;;;;;;;6.03;3.85;;;;;;;19.79;58.93;100319.25;5995131;23;20117;-80
2022/05/31 10:18:30;;;;;;;5.95;3.80;;;;;;;20.46;58.04;100309.53;6160042;23;20040;-81
2022/05/31 10:21:09;;;;;;;5.05;3.42;;;;;;;20.80;55.38;100312.56;6214115;23;20023;-79
2022/05/31 10:27:53;;;;;;;5.32;4.18;;;;;;;21.02;53.20;100275.47;6212361;23;20091;-82
2022/05/31 10:32:01;;;;;;;;;;;;;;;;;;;;;
2022/05/31 10:35:30;;;;;;;5.63;3.40;;;;;;;20.28;52.30;100263.63;6184267;23;20021;-78
2022/05/31 10:38:30;;;;;;;12.20;3.60;;;;;;;20.38;51.93;100329.28;6211791;23;20012;-81
2022/05/31 10:41:16;;;;;;;5.00;3.10;;;;;;;20.06;52.85;100323.56;6204488;23;20103;-80
2022/05/31 10:44:28;;;;;;;6.57;3.15;;;;;;;20.02;53.25;100322.78;6168600;23;20012;-83
2022/05/31 10:47:16;;;;;;;4.10;3.13;;;;;;;19.98;52.53;100297.41;6215148;23;20323;-83
2022/05/31 10:50:15;;;;;;;5.60;3.50;;;;;;;19.53;52.36;100270.13;6193404;23;20016;-81
2022/05/31 10:57:29;;;;;;;8.25;3.30;;;;;;;19.41;53.39;100337.41;6150138;23;20475;-81
2022/05/31 11:00:55;;;;;;;6.05;3.00;;;;;;;18.80;53.88;100275.41;6135581;23;20037;-81
2022/05/31 11:13:17;;;;;;;4.57;2.83;;;;;;;17.59;55.96;100255.63;6090975;23;20030;-81
2022/05/31 11:16:41;;;;;;;4.45;2.80;;;;;;;17.67;56.62;100256.25;6118332;23;20462;-81
2022/05/31 11:24:39;;;;;;;6.05;3.28;;;;;;;18.45;57.42;100341.59;6215911;23;20063;-80
2022/05/31 11:27:26;;;;;;;4.88;3.22;;;;;;;18.69;57.88;100356.59;6188021;23;20080;-78
2022/05/31 11:30:06;;;;;;;4.53;2.95;;;;;;;18.75;57.50;100352.03;6187498;23;20090;-79
2022/05/31 11:33:03;;;;;;;3.90;3.08;;;;;;;18.81;58.10;100350.94;6187523;23;20366;-78
2022/05/31 11:35:38;;;;;;;8.27;3.95;;;;;;;18.78;58.74;100351.03;6214277;23;20044;-79
2022/05/31 11:38:30;;;;;;;3.78;3.47;;;;;;;18.57;58.92;100339.44;6188365;23;20039;-78
2022/05/31 11:41:16;;;;;;;5.72;3.78;;;;;;;18.70;60.10;100346.03;6213240;23;20099;-80
2022/05/31 11:44:19;;;;;;;7.47;4.90;;;;;;;18.74;60.50;100352.94;6217616;23;20017;-80
2022/05/31 11:47:38;;;;;;;9.40;5.97;;;;;;;18.65;60.31;100337.41;6169535;23;20373;-79
2022/05/31 11:50:26;;;;;;;7.80;6.40;;;;;;;18.86;60.47;100327.03;6231810;23;20016;-80
2022/05/31 11:53:14;;;;;;;10.15;6.95;;;;;;;18.93;60.58;100328.56;6186474;23;20042;-79
2022/05/31 11:56:19;;;;;;;11.90;7.10;;;;;;;18.99;60.26;100348.59;6212739;23;20014;-79
2022/05/31 11:58:57;;;;;;;12.88;10.13;;;;;;;18.99;60.39;100346.81;6169665;23;20035;-79
2022/05/31 12:01:54;;;;;;;8.93;7.68;;;;;;;19.04;60.30;100338.75;6217146;23;20016;-79
2022/05/31 12:04:23;;;;;;;9.15;7.32;;;;;;;18.90;59.77;100334.78;6227062;23;20024;-81
2022/05/31 12:07:09;;;;;;;7.93;5.97;;;;;;;18.84;60.11;100342.94;6191923;23;20156;-80
2022/05/31 12:09:47;;;;;;;6.53;4.75;;;;;;;18.67;60.37;100339.06;6189962;23;20023;-78
2022/05/31 12:12:19;;;;;;;18.98;12.65;;;;;;;18.74;60.67;100338.88;6189870;23;20020;-79
2022/05/31 12:14:59;;;;;;;6.43;4.78;;;;;;;18.54;60.21;100324.59;6216166;23;20382;-80
2022/05/31 12:17:37;;;;;;;8.20;5.25;;;;;;;18.30;61.04;100319.22;6215059;23;20055;-78
2022/05/31 12:20:20;;;;;;;9.55;5.93;;;;;;;18.40;61.48;100335.59;6189587;23;20453;-78
2022/05/31 12:22:57;;;;;;;8.95;5.95;;;;;;;18.19;62.22;100287.97;6213215;23;20159;-79
2022/05/31 12:25:32;;;;;;;8.15;5.70;;;;;;;18.44;62.21;100297.72;6227261;23;20059;-80
2022/05/31 12:28:12;;;;;;;7.28;5.93;;;;;;;18.80;62.34;100339.50;6222563;23;20078;-81
2022/05/31 12:30:53;;;;;;;7.85;5.90;;;;;;;18.50;62.01;100284.34;6221636;23;20020;-79
2022/05/31 12:33:39;;;;;;;7.75;5.53;;;;;;;18.81;61.52;100335.13;6219460;23;20122;-79
2022/05/31 12:36:09;;;;;;;9.13;5.97;;;;;;;18.74;61.89;100330.97;6194664;23;20039;-78
2022/05/31 12:39:05;;;;;;;6.13;4.63;;;;;;;18.59;62.03;100340.25;6170384;23;20108;-79
2022/05/31 12:41:38;;;;;;;9.65;5.55;;;;;;;18.48;62.11;100323.03;6195888;23;20022;-81
2022/05/31 12:44:13;;;;;;;8.18;6.10;;;;;;;18.47;62.68;100316.03;6219799;23;20012;-79
2022/05/31 12:46:48;;;;;;;8.93;5.80;;;;;;;18.42;63.30;100310.06;6251329;23;20406;-80
2022/05/31 12:49:18;;;;;;;9.93;6.30;;;;;;;18.46;62.93;100338.03;6246292;23;20082;-79
2022/05/31 12:55:32;;;;;;;7.75;5.97;;;;;;;18.47;63.93;100323.06;6147250;23;20024;-81
2022/05/31 13:03:36;;;;;;;8.27;6.32;;;;;;;18.81;64.27;100321.94;6134599;23;20025;-79
2022/05/31 13:06:24;;;;;;;7.35;4.97;;;;;;;18.93;64.26;100316.22;6075570;23;20105;-79
2022/05/31 13:09:34;;;;;;;11.45;5.63;;;;;;;19.01;63.85;100320.41;6076528;23;20029;-80
2022/05/31 13:20:56;;;;;;;8.95;5.03;;;;;;;19.37;63.57;100270.72;6102722;23;20021;-79
2022/05/31 13:23:29;;;;;;;9.77;4.88;;;;;;;19.38;63.39;100308.50;6079197;23;20064;-79
2022/05/31 13:25:56;;;;;;;7.35;5.38;;;;;;;19.12;63.20;100291.84;6128902;23;20013;-79
2022/05/31 13:28:33;;;;;;;6.75;5.22;;;;;;;19.15;63.75;100304.94;6130308;23;20097;-81
2022/05/31 13:31:21;;;;;;;10.35;5.80;;;;;;;19.20;64.15;100291.59;6103974;23;20025;-79
2022/05/31 13:34:02;;;;;;;7.05;4.47;;;;;;;19.19;63.50;100303.91;6130523;23;20022;-79
2022/05/31 13:36:34;;;;;;;7.32;4.95;;;;;;;19.03;63.51;100308.88;6107516;23;20117;-80
2022/05/31 13:39:06;;;;;;;13.32;7.65;;;;;;;18.95;63.73;100303.03;6083212;23;20017;-80
2022/05/31 13:41:59;;;;;;;15.80;7.28;;;;;;;18.88;63.40;100307.59;6105211;23;20022;-78
2022/05/31 13:44:29;;;;;;;9.75;6.45;;;;;;;18.45;63.88;100241.47;6080303;23;20037;-80
2022/05/31 13:47:01;;;;;;;12.07;6.85;;;;;;;18.84;63.99;100305.16;6130123;23;20172;-81
2022/05/31 13:49:40;;;;;;;;;;;;;;;18.87;64.01;100305.88;6081217;23;20018;-79
2022/05/31 13:52:22;;;;;;;10.85;5.90;;;;;;;18.82;63.38;100300.78;6129682;23;19912;-80
2022/05/31 13:54:49;;;;;;;10.10;5.47;;;;;;;18.72;63.54;100306.44;6104329;23;20022;-81
2022/05/31 13:57:19;;;;;;;8.70;5.45;;;;;;;18.52;63.18;100282.50;6105548;23;20028;-79
2022/05/31 13:59:59;;;;;;;7.93;4.70;;;;;;;18.66;63.24;100302.25;6055369;23;20456;-80
2022/05/31 14:05:49;;;;;;;7.78;5.80;;;;;;;18.70;63.45;100284.53;6082159;23;20028;-78
2022/05/31 14:08:56;;;;;;;8.27;5.40;;;;;;;18.72;62.92;100286.22;6106182;23;20107;-79
2022/05/31 14:11:59;;;;;;;8.20;4.65;;;;;;;18.72;63.41;100282.72;5990155;23;20119;-79